createdAt,value
2022-10-31T00:02:25.415Z,6.88
2022-10-31T00:04:51.844Z,6.88
2022-10-31T00:07:18.249Z,7.75
2022-10-31T00:09:44.671Z,7.03
2022-10-31T00:12:11.007Z,7.93
2022-10-31T00:14:37.328Z,7.15
2022-10-31T00:17:03.707Z,7.75
2022-10-31T00:19:30.171Z,6.90
2022-10-31T00:21:56.523Z,6.88
2022-10-31T00:24:22.896Z,7.35
2022-10-31T00:26:49.292Z,8.02
2022-10-31T00:29:15.617Z,8.07
2022-10-31T00:31:41.942Z,8.00
2022-10-31T00:34:08.322Z,7.88
2022-10-31T00:36:35.974Z,8.00
2022-10-31T00:39:02.413Z,8.02
2022-10-31T00:41:29.892Z,10.35
2022-10-31T00:43:57.283Z,10.77
2022-10-31T00:46:23.988Z,9.82
2022-10-31T00:48:50.875Z,9.90
2022-10-31T00:51:17.295Z,10.55
2022-10-31T00:53:43.777Z,8.95
2022-10-31T00:56:10.469Z,9.85
2022-10-31T00:58:37.054Z,9.55
2022-10-31T01:01:04.164Z,9.65
2022-10-31T01:03:32.274Z,9.80
2022-10-31T01:05:58.647Z,11.07
2022-10-31T01:08:25.092Z,10.48
2022-10-31T01:11:06.878Z,10.32
2022-10-31T01:13:33.694Z,10.95
2022-10-31T01:16:01.792Z,10.80
2022-10-31T01:18:28.524Z,10.02
2022-10-31T01:20:59.262Z,10.68
2022-10-31T01:23:25.821Z,12.20
2022-10-31T01:25:59.639Z,10.25
2022-10-31T01:31:00.720Z,10.75
2022-10-31T01:33:27.145Z,10.38
2022-10-31T01:35:54.454Z,10.02
2022-10-31T01:38:20.893Z,10.68
2022-10-31T01:40:48.247Z,11.65
2022-10-31T01:43:15.058Z,11.70
2022-10-31T01:45:42.856Z,11.90
2022-10-31T01:48:14.513Z,12.32
2022-10-31T01:50:41.659Z,13.65
2022-10-31T01:53:09.091Z,13.73
2022-10-31T01:55:36.718Z,14.02
2022-10-31T01:58:07.000Z,14.20
2022-10-31T02:00:33.552Z,16.30
2022-10-31T02:03:00.728Z,14.05
2022-10-31T02:05:30.400Z,17.95
2022-10-31T02:08:23.106Z,15.18
2022-10-31T02:10:50.429Z,13.27
2022-10-31T02:13:18.005Z,13.20
2022-10-31T02:15:50.051Z,15.15
2022-10-31T02:18:16.906Z,13.68
2022-10-31T02:20:48.973Z,13.93
2022-10-31T02:23:30.604Z,16.73
2022-10-31T02:26:18.614Z,10.23
2022-10-31T02:29:00.040Z,15.25
2022-10-31T02:31:34.561Z,15.43
2022-10-31T02:34:10.624Z,14.82
2022-10-31T02:36:37.698Z,14.30
2022-10-31T02:39:22.866Z,14.32
2022-10-31T02:42:10.434Z,15.20
2022-10-31T02:44:37.639Z,16.88
2022-10-31T02:47:10.385Z,17.02
2022-10-31T02:49:40.845Z,16.33
2022-10-31T02:52:29.578Z,17.35
2022-10-31T02:55:36.967Z,16.63
2022-10-31T02:58:06.163Z,16.98
2022-10-31T03:00:37.957Z,17.30
2022-10-31T03:03:04.783Z,16.98
2022-10-31T03:05:31.196Z,18.85
2022-10-31T03:07:57.498Z,18.02
2022-10-31T03:10:46.063Z,17.35
2022-10-31T03:13:21.410Z,15.95
2022-10-31T03:15:54.312Z,16.77
2022-10-31T03:18:29.293Z,17.30
2022-10-31T03:21:05.823Z,18.35
2022-10-31T03:23:36.780Z,17.00
2022-10-31T03:26:06.034Z,16.33
2022-10-31T03:28:37.115Z,16.75
2022-10-31T03:31:07.346Z,18.10
2022-10-31T03:33:37.979Z,18.60
2022-10-31T03:36:06.800Z,18.85
2022-10-31T03:38:34.487Z,18.67
2022-10-31T03:41:04.124Z,19.25
2022-10-31T03:43:33.192Z,19.15
2022-10-31T03:46:00.102Z,19.95
2022-10-31T03:48:27.787Z,19.38
2022-10-31T03:51:00.763Z,17.85
2022-10-31T03:53:31.127Z,17.48
2022-10-31T03:56:01.766Z,16.20
2022-10-31T03:58:29.922Z,16.95
2022-10-31T04:00:58.391Z,16.73
2022-10-31T04:03:29.660Z,16.83
2022-10-31T04:05:59.483Z,17.40
2022-10-31T04:08:28.719Z,18.17
2022-10-31T04:10:57.003Z,18.13
2022-10-31T04:13:25.485Z,18.50
2022-10-31T04:15:59.975Z,17.38
2022-10-31T04:18:26.779Z,19.73
2022-10-31T04:21:00.995Z,17.73
2022-10-31T04:23:27.668Z,17.15
2022-10-31T04:25:54.771Z,16.67
2022-10-31T04:28:21.116Z,16.23
2022-10-31T04:30:47.542Z,16.90
2022-10-31T04:33:14.144Z,17.40
2022-10-31T04:35:41.948Z,15.80
2022-10-31T04:38:10.455Z,17.52
2022-10-31T04:40:38.286Z,16.25
2022-10-31T04:43:27.284Z,16.63
2022-10-31T04:45:53.797Z,19.02
2022-10-31T04:48:20.248Z,15.32
2022-10-31T04:50:46.755Z,17.42
2022-10-31T04:53:14.831Z,17.33
2022-10-31T04:56:01.828Z,18.02
2022-10-31T04:58:36.356Z,16.25
2022-10-31T05:01:06.413Z,17.00
2022-10-31T05:03:33.520Z,17.45
2022-10-31T05:05:59.948Z,17.15
2022-10-31T05:08:27.336Z,17.08
2022-10-31T05:10:54.765Z,16.98
2022-10-31T05:16:11.492Z,16.70
2022-10-31T05:18:56.502Z,16.10
2022-10-31T05:21:28.610Z,16.40
2022-10-31T05:23:59.464Z,16.05
2022-10-31T05:26:26.046Z,16.02
2022-10-31T05:28:55.088Z,16.80
2022-10-31T05:31:21.429Z,17.77
2022-10-31T05:33:49.538Z,16.45
2022-10-31T05:36:36.115Z,17.58
2022-10-31T05:39:08.982Z,17.08
2022-10-31T05:41:40.336Z,16.80
2022-10-31T05:44:13.965Z,17.17
2022-10-31T05:47:09.645Z,16.25
2022-10-31T05:49:54.447Z,16.10
2022-10-31T05:52:39.275Z,15.77
2022-10-31T05:55:20.240Z,15.77
2022-10-31T05:58:09.487Z,18.42
2022-10-31T06:00:37.623Z,15.25
2022-10-31T06:05:50.835Z,18.25
2022-10-31T06:08:21.096Z,15.13
2022-10-31T06:10:48.722Z,16.25
2022-10-31T06:13:20.168Z,16.77
2022-10-31T06:16:03.583Z,18.92
2022-10-31T06:18:35.558Z,16.40
2022-10-31T06:21:01.978Z,17.60
2022-10-31T06:23:28.781Z,18.80
2022-10-31T06:26:15.323Z,18.88
2022-10-31T06:28:41.768Z,20.17
2022-10-31T06:31:23.815Z,19.42
2022-10-31T06:33:50.500Z,17.42
2022-10-31T06:36:17.007Z,17.83
2022-10-31T06:38:43.526Z,19.52
2022-10-31T06:41:10.735Z,19.10
2022-10-31T06:43:47.098Z,17.75
2022-10-31T06:46:26.535Z,18.40
2022-10-31T06:49:06.111Z,17.60
2022-10-31T06:51:39.188Z,19.48
2022-10-31T06:54:05.756Z,19.23
2022-10-31T06:56:32.156Z,19.42
2022-10-31T06:58:59.628Z,18.52
2022-10-31T07:01:45.513Z,18.27
2022-10-31T07:04:13.217Z,19.17
2022-10-31T07:06:39.688Z,19.23
2022-10-31T07:09:06.556Z,18.92
2022-10-31T07:11:32.959Z,20.55
2022-10-31T07:13:59.783Z,19.08
2022-10-31T07:16:27.353Z,18.92
2022-10-31T07:18:54.037Z,19.67
2022-10-31T07:21:21.783Z,19.13
2022-10-31T07:23:48.940Z,18.95
2022-10-31T07:26:48.375Z,18.88
2022-10-31T07:29:15.148Z,18.60
2022-10-31T07:31:41.572Z,20.02
2022-10-31T07:34:16.199Z,18.20
2022-10-31T07:37:00.878Z,18.40
2022-10-31T07:39:27.384Z,18.13
2022-10-31T07:41:53.938Z,17.52
2022-10-31T07:44:20.369Z,17.45
2022-10-31T07:47:15.572Z,20.23
2022-10-31T07:50:00.444Z,21.33
2022-10-31T07:53:06.136Z,21.23
2022-10-31T07:55:41.665Z,21.65
2022-10-31T07:58:15.166Z,20.52
2022-10-31T08:00:42.830Z,20.00
2022-10-31T08:03:12.005Z,19.35
2022-10-31T08:05:58.398Z,20.58
2022-10-31T08:08:30.411Z,19.35
2022-10-31T08:10:58.858Z,19.55
2022-10-31T08:13:25.458Z,19.92
2022-10-31T08:15:52.979Z,19.30
2022-10-31T08:18:24.696Z,18.63
2022-10-31T08:20:51.707Z,17.73
2022-10-31T08:23:18.227Z,19.00
2022-10-31T08:25:47.771Z,18.50
2022-10-31T08:28:14.818Z,17.55
2022-10-31T08:30:43.854Z,19.40
2022-10-31T08:33:28.874Z,17.65
2022-10-31T08:36:13.657Z,18.75
2022-10-31T08:38:48.746Z,16.80
2022-10-31T08:41:16.649Z,16.50
2022-10-31T08:43:43.379Z,16.48
2022-10-31T08:46:09.702Z,16.23
2022-10-31T08:48:36.988Z,16.42
2022-10-31T08:51:04.476Z,16.40
2022-10-31T08:53:31.775Z,16.85
2022-10-31T08:58:52.003Z,16.35
2022-10-31T09:01:23.861Z,16.33
2022-10-31T09:03:50.391Z,17.23
2022-10-31T09:06:16.912Z,17.25
2022-10-31T09:08:43.384Z,16.52
2022-10-31T09:11:10.773Z,16.40
2022-10-31T09:13:55.540Z,17.38
2022-10-31T09:16:40.199Z,15.88
2022-10-31T09:19:13.250Z,16.10
2022-10-31T09:21:40.467Z,17.85
2022-10-31T09:24:06.839Z,18.95
2022-10-31T09:26:34.412Z,19.55
2022-10-31T09:29:15.432Z,18.98
2022-10-31T09:31:45.099Z,19.48
2022-10-31T09:34:28.724Z,18.65
2022-10-31T09:37:06.482Z,20.00
2022-10-31T09:39:35.156Z,19.92
2022-10-31T09:42:24.840Z,19.30
2022-10-31T09:45:16.547Z,18.75
2022-10-31T09:47:54.836Z,20.27
2022-10-31T09:50:34.443Z,19.98
2022-10-31T09:53:24.580Z,19.50
2022-10-31T09:55:51.785Z,18.38
2022-10-31T09:58:20.908Z,19.88
2022-10-31T10:00:48.245Z,18.67
2022-10-31T10:03:17.852Z,18.98
2022-10-31T10:05:53.327Z,19.73
2022-10-31T10:08:31.924Z,19.92
2022-10-31T10:13:33.821Z,20.20
2022-10-31T10:16:04.486Z,19.98
2022-10-31T10:18:36.732Z,20.92
2022-10-31T10:21:15.522Z,21.05
2022-10-31T10:23:44.961Z,20.88
2022-10-31T10:26:21.780Z,21.75
2022-10-31T10:28:56.563Z,20.10
2022-10-31T10:31:25.440Z,21.70
2022-10-31T10:33:51.776Z,20.20
2022-10-31T10:36:24.273Z,19.50
2022-10-31T10:41:18.510Z,21.52
2022-10-31T10:43:45.131Z,21.45
2022-10-31T10:46:30.102Z,21.40
2022-10-31T10:48:59.368Z,18.83
2022-10-31T10:51:54.642Z,20.08
2022-10-31T10:54:27.680Z,20.58
2022-10-31T10:57:03.071Z,19.92
2022-10-31T10:59:31.359Z,20.35
2022-10-31T11:01:59.398Z,23.60
2022-10-31T11:04:27.799Z,19.92
2022-10-31T11:06:58.268Z,21.55
2022-10-31T11:09:24.700Z,22.60
2022-10-31T11:11:51.076Z,22.17
2022-10-31T11:14:21.415Z,21.55
2022-10-31T11:16:51.458Z,21.38
2022-10-31T11:19:27.307Z,21.02
2022-10-31T11:21:54.476Z,20.05
2022-10-31T11:24:27.069Z,18.67
2022-10-31T11:29:25.711Z,18.85
2022-10-31T11:31:56.637Z,20.30
2022-10-31T11:34:33.972Z,19.05
2022-10-31T11:37:24.661Z,19.02
2022-10-31T11:39:54.613Z,19.45
2022-10-31T11:42:27.540Z,18.58
2022-10-31T11:44:54.836Z,18.92
2022-10-31T11:47:29.149Z,18.35
2022-10-31T11:49:55.972Z,19.25
2022-10-31T11:52:26.856Z,19.13
2022-10-31T11:54:56.231Z,19.98
2022-10-31T11:57:41.868Z,20.17
2022-10-31T12:00:21.766Z,19.55
2022-10-31T12:02:48.337Z,19.05
2022-10-31T12:05:26.622Z,19.10
2022-10-31T12:07:53.061Z,18.70
2022-10-31T12:10:22.546Z,16.83
2022-10-31T12:12:54.472Z,18.40
2022-10-31T12:15:37.501Z,19.70
2022-10-31T12:18:16.026Z,18.30
2022-10-31T12:20:45.414Z,18.65
2022-10-31T12:23:15.839Z,18.50
2022-10-31T12:25:42.264Z,16.48
2022-10-31T12:28:34.593Z,17.33
2022-10-31T12:31:13.738Z,17.50
2022-10-31T12:33:48.262Z,17.20
2022-10-31T12:36:20.484Z,15.95
2022-10-31T12:38:56.605Z,14.32
2022-10-31T12:41:36.292Z,15.55
2022-10-31T12:44:07.080Z,16.65
2022-10-31T12:46:56.146Z,15.52
2022-10-31T12:49:32.119Z,16.13
2022-10-31T12:52:11.136Z,15.80
2022-10-31T12:54:59.113Z,16.23
2022-10-31T12:57:30.773Z,16.35
2022-10-31T12:59:57.153Z,15.13
2022-10-31T13:02:23.580Z,15.15
2022-10-31T13:04:50.047Z,15.65
2022-10-31T13:07:19.663Z,15.85
2022-10-31T13:09:51.112Z,14.90
2022-10-31T13:12:19.133Z,15.20
2022-10-31T13:14:55.492Z,14.43
2022-10-31T13:17:21.841Z,13.63
2022-10-31T13:19:48.598Z,13.07
2022-10-31T13:22:17.826Z,14.55
2022-10-31T13:24:55.572Z,14.82
2022-10-31T13:27:29.079Z,15.80
2022-10-31T13:30:06.992Z,15.88
2022-10-31T13:32:42.494Z,14.70
2022-10-31T13:35:14.725Z,15.20
2022-10-31T13:37:53.719Z,15.15
2022-10-31T13:40:41.198Z,15.45
2022-10-31T13:43:12.812Z,15.90
2022-10-31T13:45:48.812Z,16.17
2022-10-31T13:48:15.203Z,16.27
2022-10-31T13:50:42.045Z,16.70
2022-10-31T13:53:12.848Z,17.02
2022-10-31T13:55:49.471Z,15.95
2022-10-31T13:58:24.117Z,16.98
2022-10-31T14:01:00.084Z,15.60
2022-10-31T14:03:57.556Z,18.35
2022-10-31T14:06:13.604Z,17.58
2022-10-31T14:08:49.128Z,18.23
2022-10-31T14:11:24.683Z,18.17
2022-10-31T14:13:51.439Z,17.30
2022-10-31T14:16:23.723Z,17.67
2022-10-31T14:18:52.449Z,17.15
2022-10-31T14:21:24.749Z,18.20
2022-10-31T14:23:54.190Z,17.88
2022-10-31T14:26:27.994Z,17.92
2022-10-31T14:28:55.786Z,20.08
2022-10-31T14:31:38.833Z,18.23
2022-10-31T14:34:24.314Z,17.58
2022-10-31T14:36:50.599Z,18.23
2022-10-31T14:39:28.139Z,19.35
2022-10-31T14:42:09.780Z,18.48
2022-10-31T14:44:56.483Z,19.48
2022-10-31T14:47:41.581Z,18.98
2022-10-31T14:50:20.750Z,18.75
2022-10-31T14:52:49.550Z,18.67
2022-10-31T14:55:16.799Z,20.33
2022-10-31T14:57:47.177Z,21.05
2022-10-31T15:00:17.007Z,20.52
2022-10-31T15:03:02.629Z,20.70
2022-10-31T15:05:29.943Z,19.52
2022-10-31T15:07:57.768Z,19.23
2022-10-31T15:10:26.368Z,19.40
2022-10-31T15:12:52.975Z,18.80
2022-10-31T15:15:23.799Z,19.95
2022-10-31T15:17:53.104Z,18.83
2022-10-31T15:20:30.347Z,20.10
2022-10-31T15:22:58.039Z,19.95
2022-10-31T15:25:25.435Z,19.55
2022-10-31T15:27:52.804Z,19.85
2022-10-31T15:30:20.596Z,19.65
2022-10-31T15:32:57.423Z,19.58
2022-10-31T15:35:29.344Z,19.73
2022-10-31T15:37:56.294Z,19.90
2022-10-31T15:40:25.932Z,20.50
2022-10-31T15:42:56.436Z,20.50
2022-10-31T15:45:24.855Z,20.67
2022-10-31T15:48:02.424Z,21.60
2022-10-31T15:50:33.406Z,20.85
2022-10-31T15:53:01.164Z,21.63
2022-10-31T15:55:29.114Z,20.33
2022-10-31T15:57:59.859Z,22.45
2022-10-31T16:00:30.700Z,21.73
2022-10-31T16:03:06.064Z,20.92
2022-10-31T16:05:36.881Z,21.23
2022-10-31T16:08:03.275Z,20.48
2022-10-31T16:10:33.300Z,22.80
2022-10-31T16:13:01.587Z,20.60
2022-10-31T16:15:28.203Z,20.77
2022-10-31T16:17:59.273Z,20.92
2022-10-31T16:20:29.066Z,20.92
2022-10-31T16:22:57.845Z,19.67
2022-10-31T16:25:29.314Z,19.58
2022-10-31T16:27:58.723Z,20.15
2022-10-31T16:30:47.060Z,19.08
2022-10-31T16:33:26.166Z,20.95
2022-10-31T16:35:56.170Z,18.85
2022-10-31T16:38:30.772Z,20.05
2022-10-31T16:40:57.233Z,20.50
2022-10-31T16:43:24.216Z,17.25
2022-10-31T16:45:51.792Z,18.10
2022-10-31T16:48:20.199Z,18.58
2022-10-31T16:50:47.479Z,18.45
2022-10-31T16:53:16.575Z,17.52
2022-10-31T16:55:45.712Z,18.08
2022-10-31T16:58:17.151Z,17.27
2022-10-31T17:00:43.589Z,16.83
2022-10-31T17:03:10.461Z,16.58
2022-10-31T17:05:38.352Z,15.02
2022-10-31T17:08:04.868Z,14.73
2022-10-31T17:10:31.481Z,13.85
2022-10-31T17:12:59.890Z,13.43
2022-10-31T17:15:27.691Z,14.13
2022-10-31T17:17:54.444Z,14.05
2022-10-31T17:20:25.359Z,13.88
2022-10-31T17:22:51.816Z,13.80
2022-10-31T17:25:19.682Z,13.13
2022-10-31T17:27:47.406Z,11.98
2022-10-31T17:30:14.443Z,12.10
2022-10-31T17:32:41.543Z,11.65
2022-10-31T17:35:08.664Z,11.23
2022-10-31T17:37:35.358Z,11.60
2022-10-31T17:40:02.023Z,10.55
2022-10-31T17:42:28.511Z,9.73
2022-10-31T17:44:54.892Z,10.65
2022-10-31T17:47:21.298Z,10.45
2022-10-31T17:49:47.929Z,10.50
2022-10-31T17:52:14.271Z,10.10
2022-10-31T17:54:40.602Z,11.63
2022-10-31T17:57:06.944Z,11.60
2022-10-31T17:59:33.356Z,17.00
2022-10-31T18:02:00.494Z,21.42
2022-10-31T18:04:27.067Z,15.48
2022-10-31T18:06:53.488Z,15.30
2022-10-31T18:09:20.000Z,15.32
2022-10-31T18:11:46.388Z,9.40
2022-10-31T18:14:12.775Z,10.50
2022-10-31T18:16:39.216Z,13.07
2022-10-31T18:19:05.934Z,15.25
2022-10-31T18:21:32.512Z,11.07
2022-10-31T18:23:59.881Z,9.13
2022-10-31T18:26:27.194Z,8.52
2022-10-31T18:28:53.877Z,7.65
2022-10-31T18:31:20.331Z,6.53
2022-10-31T18:33:46.811Z,8.10
2022-10-31T18:36:13.216Z,7.88
2022-10-31T18:38:40.431Z,7.63
2022-10-31T18:41:07.425Z,6.90
2022-10-31T18:43:33.817Z,6.80
2022-10-31T18:46:04.510Z,7.22
2022-10-31T18:48:31.431Z,6.95
2022-10-31T18:51:01.486Z,6.43
2022-10-31T18:53:27.865Z,5.50
2022-10-31T18:55:54.208Z,6.00
2022-10-31T18:58:20.673Z,5.75
2022-10-31T19:00:47.511Z,5.95
2022-10-31T19:03:14.426Z,6.45
2022-10-31T19:05:40.788Z,5.55
2022-10-31T19:08:07.274Z,5.63
2022-10-31T19:10:37.531Z,5.82
2022-10-31T19:13:04.216Z,6.22
2022-10-31T19:15:31.088Z,5.88
2022-10-31T19:17:57.424Z,6.43
2022-10-31T19:20:23.753Z,6.30
2022-10-31T19:22:50.215Z,7.15
2022-10-31T19:25:16.585Z,6.60
2022-10-31T19:27:42.954Z,5.95
2022-10-31T19:30:09.664Z,6.60
2022-10-31T19:32:36.317Z,6.78
2022-10-31T19:35:02.882Z,6.68
2022-10-31T19:37:29.350Z,7.50
2022-10-31T19:39:55.739Z,7.55
2022-10-31T19:42:22.146Z,6.60
2022-10-31T19:44:48.683Z,5.88
2022-10-31T19:47:15.092Z,5.78
2022-10-31T19:49:41.467Z,7.05
2022-10-31T19:52:07.948Z,6.75
2022-10-31T19:54:34.632Z,6.65
2022-10-31T19:57:00.992Z,5.35
2022-10-31T19:59:27.449Z,6.28
2022-10-31T20:01:53.914Z,6.18
2022-10-31T20:04:20.373Z,7.13
2022-10-31T20:06:46.750Z,6.03
2022-10-31T20:09:13.766Z,7.20
2022-10-31T20:11:40.970Z,6.15
2022-10-31T20:14:08.423Z,6.68
2022-10-31T20:16:35.148Z,5.93
2022-10-31T20:19:01.636Z,6.60
2022-10-31T20:21:29.431Z,6.25
2022-10-31T20:23:56.872Z,5.53
2022-10-31T20:26:23.520Z,6.18
2022-10-31T20:28:50.039Z,6.68
2022-10-31T20:31:18.134Z,6.82
2022-10-31T20:33:44.634Z,7.47
2022-10-31T20:36:11.073Z,6.38
2022-10-31T20:38:38.833Z,6.60
2022-10-31T20:41:06.098Z,6.93
2022-10-31T20:43:32.923Z,6.38
2022-10-31T20:46:00.634Z,6.93
2022-10-31T20:48:27.202Z,7.13
2022-10-31T20:51:00.506Z,6.97
2022-10-31T20:53:28.276Z,6.95
2022-10-31T20:56:07.235Z,6.82
2022-10-31T20:58:34.711Z,6.45
2022-10-31T21:01:01.142Z,6.97
2022-10-31T21:03:27.578Z,7.07
2022-10-31T21:05:54.868Z,6.43
2022-10-31T21:08:21.611Z,6.88
2022-10-31T21:10:47.964Z,6.40
2022-10-31T21:13:14.496Z,6.80
2022-10-31T21:15:40.842Z,6.05
2022-10-31T21:18:07.362Z,6.15
2022-10-31T21:20:33.678Z,6.45
2022-10-31T21:23:00.450Z,6.65
2022-10-31T21:25:27.161Z,6.32
2022-10-31T21:27:53.466Z,6.47
2022-10-31T21:30:19.820Z,6.72
2022-10-31T21:32:46.144Z,5.93
2022-10-31T21:35:12.463Z,6.25
2022-10-31T21:37:38.930Z,6.95
2022-10-31T21:40:05.480Z,6.05
2022-10-31T21:42:31.915Z,5.18
2022-10-31T21:44:58.310Z,5.45
2022-10-31T21:47:24.658Z,5.18
2022-10-31T21:49:51.059Z,5.70
2022-10-31T21:52:17.412Z,4.93
2022-10-31T21:54:43.746Z,5.47
2022-10-31T21:57:10.124Z,5.72
2022-10-31T21:59:36.491Z,5.25
2022-10-31T22:02:03.656Z,5.70
2022-10-31T22:04:30.105Z,6.45
2022-10-31T22:06:56.543Z,6.00
2022-10-31T22:09:23.693Z,6.03
2022-10-31T22:11:50.139Z,6.03
2022-10-31T22:14:16.594Z,6.40
2022-10-31T22:16:42.987Z,6.03
2022-10-31T22:19:10.783Z,6.70
2022-10-31T22:21:42.799Z,6.07
2022-10-31T22:24:09.409Z,6.50
2022-10-31T22:26:36.455Z,6.80
2022-10-31T22:29:04.809Z,6.13
2022-10-31T22:31:31.835Z,5.65
2022-10-31T22:33:58.658Z,5.70
2022-10-31T22:36:26.619Z,6.43
2022-10-31T22:38:53.139Z,6.45
2022-10-31T22:41:20.820Z,6.13
2022-10-31T22:43:47.609Z,6.95
2022-10-31T22:46:15.288Z,6.72
2022-10-31T22:48:42.823Z,6.53
2022-10-31T22:51:10.355Z,6.57
2022-10-31T22:53:37.590Z,6.47
2022-10-31T22:56:04.515Z,6.15
2022-10-31T22:58:31.454Z,6.28
2022-10-31T23:00:57.924Z,6.03
2022-10-31T23:03:24.450Z,6.63
2022-10-31T23:05:57.603Z,5.80
2022-10-31T23:08:24.483Z,5.97
2022-10-31T23:10:50.831Z,6.32
2022-10-31T23:13:35.887Z,6.28
2022-10-31T23:16:04.892Z,6.00
2022-10-31T23:18:49.131Z,5.47
2022-10-31T23:21:32.616Z,6.15
2022-10-31T23:23:59.178Z,5.80
2022-10-31T23:26:44.414Z,5.75
2022-10-31T23:29:10.834Z,5.70
2022-10-31T23:31:37.203Z,5.57
2022-10-31T23:34:03.536Z,5.75
2022-10-31T23:36:29.848Z,5.75
2022-10-31T23:38:56.196Z,5.70
2022-10-31T23:41:23.418Z,5.97
2022-10-31T23:43:49.823Z,5.90
2022-10-31T23:46:16.270Z,5.93
2022-10-31T23:48:42.706Z,6.05
2022-10-31T23:51:09.139Z,6.05
2022-10-31T23:56:02.892Z,6.03
2022-10-31T23:58:29.286Z,5.50
